createdAt,value
2018-08-16T00:00:16.957Z,24.36
2018-08-16T00:02:47.642Z,24.32
2018-08-16T00:05:19.026Z,24.37
2018-08-16T00:07:49.456Z,24.41
2018-08-16T00:10:23.498Z,24.41
2018-08-16T00:12:53.806Z,24.44
2018-08-16T00:15:24.311Z,24.50
2018-08-16T00:17:55.983Z,24.48
2018-08-16T00:20:26.140Z,24.53
2018-08-16T00:22:56.432Z,24.58
2018-08-16T00:25:26.697Z,24.61
2018-08-16T00:27:56.872Z,24.66
2018-08-16T00:30:27.920Z,24.65
2018-08-16T00:32:59.560Z,24.64
2018-08-16T00:35:30.542Z,24.62
2018-08-16T00:38:00.874Z,24.62
2018-08-16T00:40:31.792Z,24.51
2018-08-16T00:43:02.096Z,24.49
2018-08-16T00:45:32.359Z,24.45
2018-08-16T00:48:02.830Z,24.47
2018-08-16T00:50:36.526Z,24.51
2018-08-16T00:53:07.107Z,24.50
2018-08-16T00:55:39.529Z,24.55
2018-08-16T00:58:09.801Z,24.58
2018-08-16T01:00:40.084Z,24.50
2018-08-16T01:03:10.294Z,24.39
2018-08-16T01:05:41.050Z,24.38
2018-08-16T01:08:11.216Z,24.28
2018-08-16T01:10:41.664Z,24.27
2018-08-16T01:13:11.639Z,24.27
2018-08-16T01:15:41.733Z,24.36
2018-08-16T01:18:13.187Z,24.32
2018-08-16T01:20:44.360Z,24.35
2018-08-16T01:23:14.717Z,24.35
2018-08-16T01:25:45.008Z,24.30
2018-08-16T01:28:15.865Z,24.30
2018-08-16T01:30:46.494Z,24.24
2018-08-16T01:33:16.773Z,24.22
2018-08-16T01:35:46.982Z,24.16
2018-08-16T01:38:17.239Z,24.16
2018-08-16T01:40:47.404Z,24.11
2018-08-16T01:43:17.743Z,24.11
2018-08-16T01:45:48.158Z,24.11
2018-08-16T01:48:18.345Z,24.05
2018-08-16T01:50:50.119Z,24.06
2018-08-16T01:53:21.698Z,24.14
2018-08-16T01:55:51.928Z,23.98
2018-08-16T01:58:22.091Z,23.99
2018-08-16T02:00:52.227Z,23.95
2018-08-16T02:03:22.606Z,23.96
2018-08-16T02:05:52.826Z,23.96
2018-08-16T02:08:23.188Z,23.90
2018-08-16T02:10:53.578Z,23.81
2018-08-16T02:13:23.946Z,23.83
2018-08-16T02:15:54.234Z,23.82
2018-08-16T02:18:25.655Z,23.75
2018-08-16T02:20:56.686Z,23.76
2018-08-16T02:23:26.768Z,23.70
2018-08-16T02:25:56.769Z,23.66
2018-08-16T02:28:27.761Z,23.69
2018-08-16T02:30:58.699Z,23.60
2018-08-16T02:33:28.909Z,23.60
2018-08-16T02:35:59.076Z,23.51
2018-08-16T02:38:29.461Z,23.47
2018-08-16T02:40:59.731Z,23.46
2018-08-16T02:43:29.890Z,23.46
2018-08-16T02:46:00.421Z,23.47
2018-08-16T02:48:31.258Z,23.53
2018-08-16T02:51:01.611Z,23.52
2018-08-16T02:53:31.746Z,23.50
2018-08-16T02:56:02.019Z,23.47
2018-08-16T02:58:32.369Z,23.45
2018-08-16T03:01:02.520Z,23.44
2018-08-16T03:03:33.667Z,23.40
2018-08-16T03:06:04.872Z,23.39
2018-08-16T03:08:35.420Z,23.44
2018-08-16T03:11:06.180Z,23.47
2018-08-16T03:13:36.467Z,23.46
2018-08-16T03:16:06.792Z,23.46
2018-08-16T03:18:37.130Z,23.44
2018-08-16T03:21:07.435Z,23.45
2018-08-16T03:23:39.017Z,23.50
2018-08-16T03:26:09.892Z,23.50
2018-08-16T03:28:41.106Z,23.58
2018-08-16T03:31:11.594Z,23.66
2018-08-16T03:33:42.866Z,23.67
2018-08-16T03:36:13.793Z,23.79
2018-08-16T03:38:43.877Z,23.96
2018-08-16T03:41:14.073Z,24.01
2018-08-16T03:43:44.075Z,24.17
2018-08-16T03:46:14.662Z,24.68
2018-08-16T03:48:45.178Z,25.10
2018-08-16T03:51:15.666Z,25.55
2018-08-16T03:53:47.172Z,25.84
2018-08-16T03:56:17.627Z,26.28
2018-08-16T03:58:47.909Z,26.67
2018-08-16T04:01:18.042Z,26.88
2018-08-16T04:03:49.086Z,27.06
2018-08-16T04:06:20.536Z,27.44
2018-08-16T04:08:50.661Z,27.53
2018-08-16T04:11:21.090Z,27.74
2018-08-16T04:13:51.097Z,27.78
2018-08-16T04:16:21.616Z,28.18
2018-08-16T04:18:51.781Z,28.27
2018-08-16T04:21:22.150Z,28.66
2018-08-16T04:23:52.409Z,28.24
2018-08-16T04:26:25.443Z,28.72
2018-08-16T04:28:57.344Z,28.74
2018-08-16T04:31:27.784Z,28.89
2018-08-16T04:33:59.891Z,28.71
2018-08-16T04:36:30.835Z,28.63
2018-08-16T04:39:01.085Z,28.74
2018-08-16T04:41:31.354Z,28.83
2018-08-16T04:44:01.395Z,28.90
2018-08-16T04:46:31.561Z,29.18
2018-08-16T04:49:01.660Z,29.49
2018-08-16T04:51:33.920Z,29.90
2018-08-16T04:54:04.140Z,29.80
2018-08-16T04:56:34.404Z,29.97
2018-08-16T04:59:04.691Z,30.19
2018-08-16T05:01:35.010Z,30.13
2018-08-16T05:04:05.538Z,30.47
2018-08-16T05:06:35.690Z,30.31
2018-08-16T05:09:07.617Z,30.58
2018-08-16T05:11:37.803Z,31.29
2018-08-16T05:14:20.253Z,31.14
2018-08-16T05:16:51.734Z,31.16
2018-08-16T05:19:21.942Z,31.18
2018-08-16T05:21:52.687Z,30.94
2018-08-16T05:24:22.812Z,30.61
2018-08-16T05:26:53.150Z,30.51
2018-08-16T05:29:23.565Z,31.05
2018-08-16T05:31:55.583Z,30.67
2018-08-16T05:34:26.853Z,31.13
2018-08-16T05:36:57.055Z,30.82
2018-08-16T05:39:27.025Z,31.54
2018-08-16T05:41:57.522Z,32.18
2018-08-16T05:44:27.735Z,32.10
2018-08-16T05:46:59.661Z,31.95
2018-08-16T05:49:29.778Z,31.25
2018-08-16T05:52:01.149Z,32.10
2018-08-16T05:54:38.469Z,32.10
2018-08-16T05:57:09.003Z,31.66
2018-08-16T05:59:39.315Z,31.96
2018-08-16T06:02:10.828Z,32.24
2018-08-16T06:04:41.193Z,32.02
2018-08-16T06:07:12.079Z,32.06
2018-08-16T06:09:42.209Z,32.19
2018-08-16T06:12:13.473Z,32.93
2018-08-16T06:14:43.630Z,33.68
2018-08-16T06:17:14.698Z,33.16
2018-08-16T06:19:45.437Z,32.57
2018-08-16T06:22:16.226Z,32.14
2018-08-16T06:24:46.594Z,32.85
2018-08-16T06:27:19.386Z,32.66
2018-08-16T06:29:50.058Z,32.82
2018-08-16T06:32:20.709Z,32.72
2018-08-16T06:34:51.720Z,32.74
2018-08-16T06:37:22.099Z,33.47
2018-08-16T06:39:52.452Z,34.39
2018-08-16T06:42:22.954Z,34.50
2018-08-16T06:44:53.194Z,34.83
2018-08-16T06:47:23.628Z,34.07
2018-08-16T06:49:53.968Z,33.33
2018-08-16T06:52:24.417Z,32.99
2018-08-16T06:54:54.755Z,34.12
2018-08-16T06:57:26.157Z,34.36
2018-08-16T06:59:56.985Z,35.17
2018-08-16T07:02:27.321Z,34.31
2018-08-16T07:04:58.091Z,35.54
2018-08-16T07:07:28.497Z,34.21
2018-08-16T07:09:58.961Z,33.94
2018-08-16T07:12:29.457Z,34.16
2018-08-16T07:15:00.416Z,34.88
2018-08-16T07:17:30.617Z,35.48
2018-08-16T07:20:02.808Z,35.56
2018-08-16T07:22:34.604Z,35.16
2018-08-16T07:25:05.042Z,35.04
2018-08-16T07:27:36.418Z,35.46
2018-08-16T07:30:08.648Z,35.32
2018-08-16T07:32:39.242Z,35.66
2018-08-16T07:35:11.217Z,34.66
2018-08-16T07:37:41.614Z,33.83
2018-08-16T07:40:11.938Z,33.67
2018-08-16T07:42:42.378Z,33.05
2018-08-16T07:45:13.325Z,31.80
2018-08-16T07:47:48.744Z,31.68
2018-08-16T07:50:19.692Z,31.36
2018-08-16T07:52:51.074Z,31.12
2018-08-16T07:55:21.538Z,30.95
2018-08-16T07:57:55.336Z,30.81
2018-08-16T08:00:27.004Z,30.62
2018-08-16T08:02:57.466Z,30.63
2018-08-16T08:05:27.894Z,30.64
2018-08-16T08:07:59.398Z,30.62
2018-08-16T08:10:31.303Z,30.60
2018-08-16T08:13:01.700Z,30.53
2018-08-16T08:15:32.294Z,30.51
2018-08-16T08:18:03.629Z,30.47
2018-08-16T08:20:34.225Z,30.56
2018-08-16T08:23:04.897Z,30.74
2018-08-16T08:25:36.434Z,30.65
2018-08-16T08:28:07.201Z,30.58
2018-08-16T08:30:37.498Z,30.59
2018-08-16T08:33:08.420Z,30.78
2018-08-16T08:35:41.713Z,31.07
2018-08-16T08:38:15.739Z,31.20
2018-08-16T08:40:45.868Z,31.30
2018-08-16T08:43:27.135Z,31.17
2018-08-16T08:45:57.810Z,31.21
2018-08-16T08:48:28.903Z,31.23
2018-08-16T08:51:00.779Z,31.26
2018-08-16T08:54:44.360Z,31.34
2018-08-16T08:57:25.526Z,31.32
2018-08-16T08:59:56.012Z,31.24
2018-08-16T09:02:26.787Z,31.28
2018-08-16T09:04:57.218Z,31.33
2018-08-16T09:07:28.788Z,31.27
2018-08-16T09:11:16.718Z,31.30
2018-08-16T09:13:58.753Z,31.31
2018-08-16T09:16:32.873Z,31.49
2018-08-16T09:19:03.769Z,31.57
2018-08-16T09:21:35.319Z,31.46
2018-08-16T09:24:08.879Z,31.61
2018-08-16T09:26:43.342Z,31.70
2018-08-16T09:29:29.811Z,31.84
2018-08-16T09:32:13.492Z,31.77
2018-08-16T09:34:43.641Z,31.84
2018-08-16T09:37:17.932Z,31.93
2018-08-16T09:39:48.443Z,31.90
2018-08-16T09:42:20.805Z,31.73
2018-08-16T09:45:01.505Z,31.65
2018-08-16T09:47:42.838Z,31.69
2018-08-16T09:50:13.137Z,31.88
2018-08-16T09:52:43.734Z,31.80
2018-08-16T09:55:14.276Z,32.04
2018-08-16T09:57:44.685Z,32.19
2018-08-16T10:00:15.190Z,31.97
2018-08-16T10:02:46.289Z,31.85
2018-08-16T10:05:16.835Z,31.95
2018-08-16T10:07:48.114Z,31.64
2018-08-16T10:10:19.634Z,31.63
2018-08-16T10:12:49.868Z,31.56
2018-08-16T10:15:20.709Z,31.48
2018-08-16T10:17:50.756Z,31.52
2018-08-16T10:20:21.279Z,31.63
2018-08-16T10:22:51.795Z,31.70
2018-08-16T10:25:22.076Z,31.56
2018-08-16T10:27:52.753Z,31.82
2018-08-16T10:30:25.663Z,31.79
2018-08-16T10:32:58.835Z,31.70
2018-08-16T10:35:37.135Z,31.87
2018-08-16T10:38:08.139Z,31.83
2018-08-16T10:40:39.162Z,31.62
2018-08-16T10:43:10.529Z,31.81
2018-08-16T10:45:41.382Z,31.75
2018-08-16T10:48:12.343Z,31.44
2018-08-16T10:50:43.528Z,31.30
2018-08-16T10:53:16.576Z,31.57
2018-08-16T10:55:47.788Z,31.53
2018-08-16T10:58:18.224Z,31.49
2018-08-16T11:00:48.603Z,31.72
2018-08-16T11:03:18.808Z,32.08
2018-08-16T11:05:49.436Z,32.24
2018-08-16T11:08:20.817Z,32.23
2018-08-16T11:10:52.692Z,32.08
2018-08-16T11:13:23.173Z,32.20
2018-08-16T11:15:53.325Z,32.17
2018-08-16T11:18:23.853Z,32.07
2018-08-16T11:20:54.068Z,31.64
2018-08-16T11:23:25.362Z,31.62
2018-08-16T11:25:55.712Z,31.65
2018-08-16T11:28:25.851Z,31.39
2018-08-16T11:30:56.777Z,31.34
2018-08-16T11:33:30.355Z,31.35
2018-08-16T11:36:01.735Z,31.53
2018-08-16T11:38:32.119Z,31.52
2018-08-16T11:41:02.805Z,31.47
2018-08-16T11:43:33.291Z,31.48
2018-08-16T11:46:03.709Z,31.48
2018-08-16T11:48:35.390Z,31.25
2018-08-16T11:51:06.055Z,31.11
2018-08-16T11:53:36.397Z,31.16
2018-08-16T11:56:07.590Z,31.14
2018-08-16T11:58:37.978Z,31.06
2018-08-16T12:01:08.415Z,31.03
2018-08-16T12:03:39.801Z,31.11
2018-08-16T12:06:11.126Z,31.22
2018-08-16T12:08:42.722Z,31.32
2018-08-16T12:11:13.192Z,31.38
2018-08-16T12:13:44.701Z,31.23
2018-08-16T12:16:16.011Z,30.99
2018-08-16T12:18:46.375Z,30.79
2018-08-16T12:21:16.533Z,30.78
2018-08-16T12:23:46.928Z,30.77
2018-08-16T12:26:17.338Z,30.82
2018-08-16T12:28:47.719Z,30.91
2018-08-16T12:31:18.452Z,30.92
2018-08-16T12:33:51.593Z,31.02
2018-08-16T12:36:21.777Z,30.97
2018-08-16T12:38:52.938Z,30.92
2018-08-16T12:41:23.352Z,30.89
2018-08-16T12:43:53.894Z,30.88
2018-08-16T12:46:24.522Z,30.77
2018-08-16T12:48:55.121Z,30.59
2018-08-16T12:51:26.653Z,30.39
2018-08-16T12:53:58.174Z,30.32
2018-08-16T12:56:28.468Z,30.21
2018-08-16T12:58:58.827Z,30.17
2018-08-16T13:01:29.123Z,30.13
2018-08-16T13:04:00.236Z,30.25
2018-08-16T13:06:30.723Z,30.33
2018-08-16T13:09:00.947Z,30.20
2018-08-16T13:11:32.091Z,30.19
2018-08-16T13:14:02.585Z,30.34
2018-08-16T13:16:32.727Z,30.39
2018-08-16T13:19:03.055Z,30.40
2018-08-16T13:21:33.481Z,30.47
2018-08-16T13:24:04.627Z,30.55
2018-08-16T13:26:34.560Z,30.57
2018-08-16T13:29:06.604Z,30.47
2018-08-16T13:31:36.749Z,30.48
2018-08-16T13:34:06.916Z,30.48
2018-08-16T13:36:37.264Z,30.62
2018-08-16T13:39:11.401Z,30.62
2018-08-16T13:41:41.324Z,30.56
2018-08-16T13:44:11.781Z,30.62
2018-08-16T13:46:42.035Z,30.49
2018-08-16T13:49:12.368Z,30.41
2018-08-16T13:51:42.739Z,30.41
2018-08-16T13:54:15.011Z,30.46
2018-08-16T13:56:45.356Z,30.57
2018-08-16T13:59:15.685Z,30.61
2018-08-16T14:01:46.944Z,30.54
2018-08-16T14:04:17.262Z,30.50
2018-08-16T14:06:47.649Z,30.47
2018-08-16T14:09:18.281Z,30.44
2018-08-16T14:11:49.402Z,30.35
2018-08-16T14:14:19.768Z,30.32
2018-08-16T14:16:50.657Z,30.37
2018-08-16T14:19:21.439Z,30.38
2018-08-16T14:21:51.731Z,30.26
2018-08-16T14:24:22.067Z,30.24
2018-08-16T14:26:52.579Z,30.22
2018-08-16T14:29:23.565Z,30.24
2018-08-16T14:31:55.625Z,30.23
2018-08-16T14:34:26.238Z,30.21
2018-08-16T14:36:57.395Z,30.17
2018-08-16T14:39:28.662Z,30.23
2018-08-16T14:41:58.857Z,30.21
2018-08-16T14:44:29.337Z,30.26
2018-08-16T14:46:59.477Z,30.19
2018-08-16T14:49:30.656Z,30.11
2018-08-16T14:52:02.338Z,30.10
2018-08-16T14:54:32.447Z,30.05
2018-08-16T14:57:03.170Z,30.13
2018-08-16T14:59:34.154Z,30.16
2018-08-16T15:02:04.553Z,30.09
2018-08-16T15:05:39.044Z,30.11
2018-08-16T15:08:09.652Z,29.99
2018-08-16T15:10:40.214Z,29.87
2018-08-16T15:13:10.559Z,29.88
2018-08-16T15:15:41.566Z,29.83
2018-08-16T15:18:12.018Z,29.79
2018-08-16T15:20:46.428Z,29.80
2018-08-16T15:23:17.872Z,29.90
2018-08-16T15:25:49.355Z,29.84
2018-08-16T15:28:21.429Z,29.88
2018-08-16T15:30:53.316Z,29.78
2018-08-16T15:33:26.763Z,29.78
2018-08-16T15:35:56.859Z,29.73
2018-08-16T15:38:28.465Z,29.74
2018-08-16T15:41:00.160Z,29.79
2018-08-16T15:43:31.813Z,29.67
2018-08-16T15:46:02.056Z,29.57
2018-08-16T15:48:33.065Z,29.48
2018-08-16T15:51:03.821Z,29.35
2018-08-16T15:53:34.077Z,29.26
2018-08-16T15:56:04.612Z,29.19
2018-08-16T15:58:35.760Z,29.20
2018-08-16T16:01:07.697Z,29.13
2018-08-16T16:03:43.461Z,29.21
2018-08-16T16:06:15.286Z,29.09
2018-08-16T16:08:46.069Z,28.94
2018-08-16T16:11:16.473Z,28.96
2018-08-16T16:13:46.796Z,29.01
2018-08-16T16:16:17.684Z,28.97
2018-08-16T16:18:52.016Z,28.91
2018-08-16T16:21:22.505Z,28.71
2018-08-16T16:23:52.358Z,28.65
2018-08-16T16:26:23.913Z,28.50
2018-08-16T16:28:54.085Z,28.55
2018-08-16T16:31:24.437Z,28.55
2018-08-16T16:33:54.688Z,28.45
2018-08-16T16:36:26.416Z,28.42
2018-08-16T16:38:58.640Z,28.41
2018-08-16T16:41:29.115Z,28.39
2018-08-16T16:43:59.233Z,28.40
2018-08-16T16:46:30.399Z,28.26
2018-08-16T16:49:00.230Z,28.21
2018-08-16T16:51:31.990Z,28.25
2018-08-16T16:54:02.710Z,28.27
2018-08-16T16:56:37.182Z,28.27
2018-08-16T16:59:07.101Z,28.13
2018-08-16T17:01:36.950Z,28.18
2018-08-16T17:04:07.148Z,28.08
2018-08-16T17:06:37.145Z,28.09
2018-08-16T17:09:09.858Z,28.05
2018-08-16T17:11:40.370Z,28.00
2018-08-16T17:14:10.630Z,27.91
2018-08-16T17:16:40.562Z,27.93
2018-08-16T17:19:10.906Z,28.00
2018-08-16T17:21:41.341Z,27.87
2018-08-16T17:24:11.784Z,27.83
2018-08-16T17:33:31.914Z,27.59
2018-08-16T17:36:01.781Z,27.56
2018-08-16T17:38:32.054Z,27.56
2018-08-16T17:41:03.138Z,27.51
2018-08-16T17:43:33.689Z,27.56
2018-08-16T17:46:04.185Z,27.50
2018-08-16T17:48:34.320Z,27.49
2018-08-16T17:51:04.102Z,27.55
2018-08-16T17:53:34.906Z,27.54
2018-08-16T17:56:09.661Z,27.51
2018-08-16T17:58:39.788Z,27.45
2018-08-16T18:01:09.885Z,27.45
2018-08-16T18:03:40.632Z,27.45
2018-08-16T18:06:10.689Z,27.43
2018-08-16T18:08:42.673Z,27.42
2018-08-16T18:11:19.282Z,27.34
2018-08-16T18:13:54.500Z,27.36
2018-08-16T18:16:24.479Z,27.22
2018-08-16T18:18:54.428Z,27.19
2018-08-16T18:21:24.341Z,27.10
2018-08-16T18:23:55.149Z,27.07
2018-08-16T18:26:26.329Z,27.06
2018-08-16T18:28:57.856Z,27.06
2018-08-16T18:31:29.760Z,27.07
2018-08-16T18:34:00.765Z,27.07
2018-08-16T18:36:33.151Z,27.11
2018-08-16T18:39:08.290Z,27.05
2018-08-16T18:41:41.303Z,27.19
2018-08-16T18:44:11.669Z,27.17
2018-08-16T18:46:45.943Z,27.16
2018-08-16T18:49:23.575Z,27.12
2018-08-16T18:51:54.116Z,27.05
2018-08-16T18:54:25.881Z,27.00
2018-08-16T18:56:57.578Z,27.05
2018-08-16T18:59:29.078Z,27.00
2018-08-16T19:02:01.517Z,26.91
2018-08-16T19:04:33.938Z,26.88
2018-08-16T19:07:04.468Z,26.96
2018-08-16T19:09:42.573Z,27.02
2018-08-16T19:12:15.173Z,27.02
2018-08-16T19:14:56.048Z,27.03
2018-08-16T19:17:27.023Z,26.99
2018-08-16T19:19:58.009Z,26.99
2018-08-16T19:22:32.819Z,26.97
2018-08-16T19:25:04.089Z,26.86
2018-08-16T19:27:35.708Z,26.83
2018-08-16T19:30:12.325Z,26.78
2018-08-16T19:32:46.276Z,26.71
2018-08-16T19:35:22.466Z,26.67
2018-08-16T19:37:56.008Z,26.69
2018-08-16T19:40:26.483Z,26.59
2018-08-16T19:42:56.666Z,26.57
2018-08-16T19:45:34.302Z,26.50
2018-08-16T19:48:04.720Z,26.51
2018-08-16T19:50:34.536Z,26.55
2018-08-16T19:53:04.612Z,26.51
2018-08-16T19:55:34.598Z,26.47
2018-08-16T19:58:14.687Z,26.55
2018-08-16T20:03:23.578Z,26.54
2018-08-16T20:05:54.000Z,26.61
2018-08-16T20:08:26.650Z,26.61
2018-08-16T20:10:58.841Z,26.68
2018-08-16T20:13:30.973Z,26.71
2018-08-16T20:16:08.440Z,26.72
2018-08-16T20:18:43.449Z,26.81
2018-08-16T20:21:23.647Z,26.72
2018-08-16T20:23:58.781Z,26.61
2018-08-16T20:26:34.988Z,26.80
2018-08-16T20:29:11.375Z,26.91
2018-08-16T20:31:44.446Z,26.88
2018-08-16T20:34:19.159Z,26.91
2018-08-16T20:36:55.884Z,26.94
2018-08-16T20:39:26.220Z,26.88
2018-08-16T20:41:58.016Z,26.93
2018-08-16T20:44:38.730Z,26.88
2018-08-16T20:47:24.833Z,26.79
2018-08-16T20:49:56.089Z,26.80
2018-08-16T20:52:31.339Z,26.82
2018-08-16T20:55:04.051Z,26.80
2018-08-16T20:57:39.539Z,26.86
2018-08-16T21:00:17.093Z,26.82
2018-08-16T21:02:49.753Z,26.81
2018-08-16T21:05:24.273Z,26.91
2018-08-16T21:07:54.704Z,26.85
2018-08-16T21:10:31.938Z,26.86
2018-08-16T21:13:04.860Z,26.93
2018-08-16T21:15:35.700Z,26.85
2018-08-16T21:18:08.219Z,26.95
2018-08-16T21:20:39.323Z,26.96
2018-08-16T21:23:17.594Z,27.00
2018-08-16T21:25:52.637Z,26.97
2018-08-16T21:28:23.234Z,26.87
2018-08-16T21:30:53.523Z,26.76
2018-08-16T21:33:23.636Z,26.82
2018-08-16T21:35:54.224Z,26.74
2018-08-16T21:38:23.993Z,26.66
2018-08-16T21:40:54.445Z,26.59
2018-08-16T21:43:24.188Z,26.61
2018-08-16T21:45:54.692Z,26.60
2018-08-16T21:48:25.521Z,26.58
2018-08-16T21:50:56.089Z,26.60
2018-08-16T21:53:25.857Z,26.61
2018-08-16T21:55:55.707Z,26.49
2018-08-16T21:58:25.616Z,26.43
2018-08-16T22:00:58.322Z,26.36
2018-08-16T22:03:29.438Z,26.33
2018-08-16T22:06:11.220Z,26.27
2018-08-16T22:08:45.227Z,26.19
2018-08-16T22:11:15.893Z,26.20
2018-08-16T22:13:47.632Z,26.24
2018-08-16T22:16:18.907Z,26.09
2018-08-16T22:18:48.716Z,26.02
2018-08-16T22:21:22.512Z,25.92
2018-08-16T22:23:52.371Z,25.88
2018-08-16T22:26:23.963Z,25.89
2018-08-16T22:28:53.722Z,25.89
2018-08-16T22:31:23.687Z,25.91
2018-08-16T22:33:53.560Z,25.85
2018-08-16T22:36:23.417Z,25.79
2018-08-16T22:38:53.452Z,25.74
2018-08-16T22:41:24.809Z,25.76
2018-08-16T22:43:55.048Z,25.67
2018-08-16T22:46:25.357Z,25.71
2018-08-16T22:48:55.487Z,25.80
2018-08-16T22:51:25.266Z,25.82
2018-08-16T22:53:55.074Z,25.80
2018-08-16T22:56:24.950Z,25.78
2018-08-16T22:58:54.727Z,25.79
2018-08-16T23:01:24.564Z,25.83
2018-08-16T23:03:54.651Z,25.80
2018-08-16T23:06:25.515Z,25.80
2018-08-16T23:08:55.154Z,25.77
2018-08-16T23:11:25.119Z,25.71
2018-08-16T23:13:55.785Z,25.73
2018-08-16T23:16:25.540Z,25.80
2018-08-16T23:18:55.704Z,25.73
2018-08-16T23:21:26.560Z,25.73
2018-08-16T23:23:57.041Z,25.78
2018-08-16T23:26:26.994Z,25.65
2018-08-16T23:28:56.760Z,25.57
2018-08-16T23:31:26.797Z,25.52
2018-08-16T23:33:59.029Z,25.50
2018-08-16T23:36:28.802Z,25.30
2018-08-16T23:38:58.669Z,25.11
2018-08-16T23:41:30.492Z,25.11
2018-08-16T23:44:00.406Z,25.09
2018-08-16T23:46:30.478Z,24.98
2018-08-16T23:49:00.267Z,25.02
2018-08-16T23:51:30.022Z,25.03
2018-08-16T23:54:02.089Z,24.88
2018-08-16T23:56:32.487Z,24.77
2018-08-16T23:59:02.187Z,24.75
